Time;durP1;ratioP1;P1;durP2;ratioP2;P2;SDS_P1;SDS_P2;PMS_P1;PMS_P2;Temp;Humidity;BMP_temperature;BMP_pressure;BME280_temperature;BME280_humidity;BME280_pressure;Samples;Min_cycle;Max_cycle;Signal;HPM_P1;HPM_P2
2022/09/01 00:01:19;;;;;;;5.47;2.80;;;;;;;19.35;89.12;100531.38;5052974;28;20036;-72
2022/09/01 00:03:48;;;;;;;6.15;2.83;;;;;;;19.37;89.55;100529.03;5049622;28;20043;-72
2022/09/01 00:06:21;;;;;;;9.27;3.15;;;;;;;19.34;89.18;100535.38;5054754;28;20036;-72
2022/09/01 00:08:48;;;;;;;9.45;3.70;;;;;;;19.32;89.92;100532.91;5018582;28;20534;-72
2022/09/01 00:11:14;;;;;;;5.47;3.20;;;;;;;19.30;89.48;100529.63;5017478;28;20035;-72
2022/09/01 00:13:39;;;;;;;8.43;2.85;;;;;;;19.29;88.99;100530.78;5036904;28;20029;-72
2022/09/01 00:16:05;;;;;;;6.93;3.38;;;;;;;19.28;88.90;100531.13;5053503;28;20473;-72
2022/09/01 00:18:31;;;;;;;9.27;3.53;;;;;;;19.28;88.97;100531.13;5048819;28;20037;-72
2022/09/01 00:20:58;;;;;;;7.65;3.00;;;;;;;19.28;88.98;100523.53;5049271;28;20048;-72
2022/09/01 00:23:25;;;;;;;9.18;3.10;;;;;;;19.24;88.75;100522.59;5050257;28;20022;-72
2022/09/01 00:25:50;;;;;;;5.43;2.83;;;;;;;19.24;88.56;100525.41;5049097;28;20037;-72
2022/09/01 00:28:16;;;;;;;8.23;3.10;;;;;;;19.26;88.77;100519.44;5047090;28;20082;-72
2022/09/01 00:30:41;;;;;;;5.40;2.80;;;;;;;19.24;88.49;100513.31;5054873;28;20029;-72
2022/09/01 00:33:07;;;;;;;5.32;3.38;;;;;;;19.22;88.38;100502.41;5055351;28;20045;-72
2022/09/01 00:35:32;;;;;;;5.68;3.10;;;;;;;19.21;88.54;100509.22;5055957;28;20378;-72
2022/09/01 00:37:58;;;;;;;7.40;2.95;;;;;;;19.20;88.54;100510.41;5047602;28;20087;-72
2022/09/01 00:40:23;;;;;;;5.28;3.20;;;;;;;19.18;88.96;100507.09;5023393;28;20036;-72
2022/09/01 00:42:49;;;;;;;9.48;3.25;;;;;;;19.15;88.49;100502.19;5021032;28;20094;-72
2022/09/01 00:45:14;;;;;;;8.68;3.20;;;;;;;19.14;88.98;100495.75;5018582;28;20760;-72
2022/09/01 00:47:40;;;;;;;7.55;3.22;;;;;;;19.15;89.55;100499.38;5051270;28;20029;-72
2022/09/01 00:50:06;;;;;;;6.70;3.15;;;;;;;19.11;89.27;100493.63;5038136;28;20063;-72
2022/09/01 00:52:34;;;;;;;4.93;2.75;;;;;;;19.09;88.68;100495.16;5036823;28;20072;-72
2022/09/01 00:55:04;;;;;;;8.00;3.00;;;;;;;19.07;88.40;100497.50;5035899;28;20045;-72
2022/09/01 00:57:29;;;;;;;7.03;2.88;;;;;;;19.01;87.91;100491.28;5036121;28;20061;-72
2022/09/01 01:00:00;;;;;;;8.55;3.13;;;;;;;18.95;88.81;100495.50;5037632;28;20086;-72
2022/09/01 01:02:26;;;;;;;7.30;3.05;;;;;;;18.90;89.70;100496.53;5050147;28;20029;-72
2022/09/01 01:04:52;;;;;;;9.32;2.83;;;;;;;18.87;88.77;100491.63;5054107;28;20087;-72
2022/09/01 01:07:19;;;;;;;7.07;3.33;;;;;;;18.88;90.57;100490.44;5054105;28;20037;-72
2022/09/01 01:09:44;;;;;;;6.15;2.80;;;;;;;18.85;88.87;100491.13;5046418;28;20040;-72
2022/09/01 01:12:16;;;;;;;6.93;3.05;;;;;;;18.87;89.73;100505.69;5055918;28;20029;-72
2022/09/01 01:14:41;;;;;;;8.10;3.30;;;;;;;18.86;90.39;100501.25;5053532;28;20068;-72
2022/09/01 01:17:07;;;;;;;10.93;3.28;;;;;;;18.90;89.32;100495.72;5037022;28;20045;-72
2022/09/01 01:25:21;;;;;;;7.00;3.13;;;;;;;18.77;88.96;100496.88;5059315;28;20072;-72
2022/09/01 01:27:47;;;;;;;8.68;3.50;;;;;;;18.73;88.60;100500.38;5022559;28;20068;-72
2022/09/01 01:30:12;;;;;;;8.35;2.95;;;;;;;18.71;89.00;100499.06;5022006;28;20390;-72
2022/09/01 01:32:42;;;;;;;9.68;3.33;;;;;;;18.67;90.20;100495.34;5048162;28;20055;-72
2022/09/01 01:35:13;;;;;;;8.68;3.38;;;;;;;18.65;90.97;100498.47;5035517;28;20104;-72
2022/09/01 01:37:44;;;;;;;9.30;3.70;;;;;;;18.64;91.63;100501.66;5055163;28;20037;-72
2022/09/01 01:40:14;;;;;;;11.00;3.45;;;;;;;18.64;90.28;100507.28;5049467;28;20071;-72
2022/09/01 01:42:45;;;;;;;7.82;2.95;;;;;;;18.63;90.05;100514.06;5022796;28;20017;-72
2022/09/01 01:45:15;;;;;;;7.22;3.03;;;;;;;18.60;89.84;100517.56;5055944;28;20062;-72
2022/09/01 01:47:42;;;;;;;7.07;3.33;;;;;;;18.58;89.62;100522.72;5055892;28;20044;-72
2022/09/01 01:50:08;;;;;;;7.90;3.08;;;;;;;18.53;89.43;100518.97;5054946;28;20040;-71
2022/09/01 01:52:34;;;;;;;4.10;2.80;;;;;;;18.51;89.46;100524.09;5047125;28;20394;-72
2022/09/01 01:55:01;;;;;;;6.07;2.67;;;;;;;18.51;88.68;100521.28;5028586;28;20029;-71
2022/09/01 01:57:30;;;;;;;7.20;2.92;;;;;;;18.46;89.01;100518.69;5037578;28;20044;-71
2022/09/01 01:59:56;;;;;;;6.90;2.55;;;;;;;18.42;89.08;100517.75;5040836;28;20033;-72
2022/09/01 02:02:22;;;;;;;7.22;2.92;;;;;;;18.42;88.63;100526.19;5052378;28;20028;-72
2022/09/01 02:04:48;;;;;;;5.30;2.45;;;;;;;18.35;88.83;100513.88;5046291;28;20033;-72
2022/09/01 02:07:13;;;;;;;5.65;2.72;;;;;;;18.30;88.70;100520.53;5048693;28;20025;-72
2022/09/01 02:09:39;;;;;;;5.63;3.03;;;;;;;18.25;89.10;100521.56;5050218;28;20063;-72
2022/09/01 02:12:06;;;;;;;5.18;2.70;;;;;;;18.24;88.92;100527.53;5038041;28;20040;-72
2022/09/01 02:14:32;;;;;;;7.15;2.72;;;;;;;18.22;88.65;100521.44;5028648;28;20033;-72
2022/09/01 02:17:01;;;;;;;4.65;2.67;;;;;;;18.18;88.86;100517.69;5054850;28;20500;-72
2022/09/01 02:19:26;;;;;;;6.78;2.90;;;;;;;18.13;88.66;100515.06;5052137;28;20039;-72
2022/09/01 02:21:55;;;;;;;3.70;2.80;;;;;;;18.09;88.67;100515.75;5050436;28;20032;-72
2022/09/01 02:24:21;;;;;;;7.63;3.25;;;;;;;18.02;88.55;100514.66;5013842;28;20112;-72
2022/09/01 02:26:47;;;;;;;6.22;2.60;;;;;;;17.98;88.72;100513.72;5044097;28;20112;-72
2022/09/01 02:29:20;;;;;;;5.28;2.80;;;;;;;17.95;88.72;100515.25;5048179;28;20049;-72
2022/09/01 02:31:48;;;;;;;6.60;2.92;;;;;;;17.90;88.97;100521.06;5054630;28;20025;-72
2022/09/01 02:34:13;;;;;;;6.00;2.70;;;;;;;17.86;88.95;100522.94;5020466;28;20029;-72
2022/09/01 02:36:46;;;;;;;5.10;2.60;;;;;;;17.81;88.78;100511.91;5047248;28;20037;-72
2022/09/01 02:39:22;;;;;;;5.50;2.80;;;;;;;17.78;89.03;100515.34;5041784;28;20065;-72
2022/09/01 02:41:48;;;;;;;5.32;2.65;;;;;;;17.77;88.97;100508.91;5051443;28;20021;-72
2022/09/01 02:44:14;;;;;;;7.88;2.50;;;;;;;17.73;88.36;100512.75;5016090;28;20038;-72
2022/09/01 02:46:41;;;;;;;5.03;2.42;;;;;;;17.72;88.68;100516.69;5021620;28;20112;-72
2022/09/01 02:49:34;;;;;;;5.28;2.60;;;;;;;17.67;88.84;100514.13;5052719;28;20059;-72
2022/09/01 02:52:01;;;;;;;4.68;2.33;;;;;;;17.67;88.83;100508.50;5041813;28;20122;-72
2022/09/01 02:54:28;;;;;;;5.95;2.83;;;;;;;17.63;89.17;100516.78;5046205;28;20041;-72
2022/09/01 02:56:54;;;;;;;5.25;2.55;;;;;;;17.61;89.02;100508.72;5053054;28;20029;-72
2022/09/01 02:59:21;;;;;;;5.80;2.50;;;;;;;17.57;89.06;100507.72;5051270;28;20041;-72
2022/09/01 03:01:50;;;;;;;5.90;2.42;;;;;;;17.54;89.01;100502.78;5023192;28;20028;-72
2022/09/01 03:04:16;;;;;;;5.53;2.67;;;;;;;17.50;89.20;100501.84;5056617;28;20477;-72
2022/09/01 03:06:41;;;;;;;4.47;2.60;;;;;;;17.47;89.06;100499.72;5054678;28;20497;-71
2022/09/01 03:09:10;;;;;;;5.90;2.45;;;;;;;17.43;89.04;100498.75;5057833;28;20040;-72
2022/09/01 03:11:38;;;;;;;2.75;2.35;;;;;;;17.40;89.42;100500.25;5059503;28;20060;-72
2022/09/01 03:14:04;;;;;;;4.75;2.65;;;;;;;17.38;89.36;100507.38;5037641;28;20060;-72
2022/09/01 03:16:30;;;;;;;4.55;2.60;;;;;;;17.37;89.05;100505.72;5059221;28;20033;-72
2022/09/01 03:18:55;;;;;;;5.55;2.80;;;;;;;17.35;89.40;100499.63;5059082;28;20037;-72
2022/09/01 03:21:22;;;;;;;3.95;2.67;;;;;;;17.30;89.28;100506.28;5050546;28;20536;-72
2022/09/01 03:23:48;;;;;;;5.32;2.38;;;;;;;17.27;89.21;100494.88;5055426;28;20025;-72
2022/09/01 03:26:13;;;;;;;3.83;2.60;;;;;;;17.26;89.53;100496.88;5050658;28;20033;-72
2022/09/01 03:28:39;;;;;;;5.03;2.10;;;;;;;17.25;89.17;100500.03;5038380;28;20044;-72
2022/09/01 03:31:05;;;;;;;7.35;2.45;;;;;;;17.22;89.19;100501.53;5024461;28;20025;-72
2022/09/01 03:33:31;;;;;;;4.05;2.63;;;;;;;17.16;89.22;100488.84;5031398;28;20057;-72
2022/09/01 03:35:56;;;;;;;3.97;2.30;;;;;;;17.14;88.89;100491.19;5022215;28;20029;-72
2022/09/01 03:38:23;;;;;;;4.07;2.42;;;;;;;17.12;88.59;100493.50;5052598;28;20025;-72
2022/09/01 03:40:53;;;;;;;6.70;2.60;;;;;;;17.08;88.97;100484.94;5051397;28;20028;-71
2022/09/01 03:43:22;;;;;;;5.65;2.70;;;;;;;17.08;88.83;100487.75;5055356;28;20061;-72
2022/09/01 03:45:47;;;;;;;5.97;2.75;;;;;;;17.12;88.54;100487.88;5041116;28;20060;-72
2022/09/01 03:48:15;;;;;;;4.40;2.40;;;;;;;17.09;88.66;100491.38;5057060;28;20033;-72
2022/09/01 03:50:44;;;;;;;5.90;2.53;;;;;;;17.06;89.22;100490.06;5053197;28;20033;-72
2022/09/01 03:53:09;;;;;;;5.57;2.67;;;;;;;17.01;89.27;100486.63;5049451;28;20106;-72
2022/09/01 03:55:36;;;;;;;4.60;2.58;;;;;;;16.98;89.20;100477.72;5038933;28;20104;-72
2022/09/01 03:58:05;;;;;;;4.70;2.72;;;;;;;16.98;89.06;100482.50;5055993;28;20595;-72
2022/09/01 04:00:34;;;;;;;3.55;2.30;;;;;;;16.96;89.46;100479.22;5059882;28;20037;-72
2022/09/01 04:03:01;;;;;;;9.38;2.95;;;;;;;16.92;89.38;100472.66;5037093;28;20021;-72
2022/09/01 04:05:28;;;;;;;10.07;2.88;;;;;;;16.91;89.09;100476.59;5027837;28;20029;-72
2022/09/01 04:07:57;;;;;;;4.95;2.90;;;;;;;16.89;89.50;100473.31;5057038;28;20449;-72
2022/09/01 04:10:23;;;;;;;3.83;2.70;;;;;;;16.89;89.76;100470.53;5021066;28;20035;-72
2022/09/01 04:12:48;;;;;;;3.03;2.20;;;;;;;16.85;89.56;100473.16;5056524;28;20040;-72
2022/09/01 04:15:15;;;;;;;3.95;2.60;;;;;;;16.85;89.86;100475.97;5046465;28;20029;-72
2022/09/01 04:20:26;;;;;;;5.53;2.60;;;;;;;16.82;89.42;100475.81;5029043;28;20105;-72
2022/09/01 04:22:51;;;;;;;5.03;2.78;;;;;;;16.79;89.94;100468.91;5047320;28;20029;-72
2022/09/01 04:25:21;;;;;;;4.40;2.47;;;;;;;16.79;89.73;100468.91;5049778;28;20029;-72
2022/09/01 04:27:48;;;;;;;4.72;2.55;;;;;;;16.77;89.67;100464.78;5022547;28;20112;-72
2022/09/01 04:30:14;;;;;;;3.42;2.40;;;;;;;16.77;89.69;100464.78;5055386;28;20032;-72
2022/09/01 04:32:40;;;;;;;6.30;3.10;;;;;;;16.75;89.54;100474.34;5057501;28;20060;-72
2022/09/01 04:35:06;;;;;;;2.95;2.50;;;;;;;16.74;89.59;100475.50;5049051;28;20060;-72
2022/09/01 04:37:35;;;;;;;5.28;2.40;;;;;;;16.70;89.61;100466.09;5057906;28;20029;-72
2022/09/01 04:40:01;;;;;;;3.33;2.20;;;;;;;16.68;89.65;100462.00;5023238;28;20033;-72
2022/09/01 04:42:27;;;;;;;3.63;2.30;;;;;;;16.64;89.51;100459.06;5055106;28;20543;-72
2022/09/01 04:44:53;;;;;;;4.00;2.40;;;;;;;16.62;89.61;100463.34;5049062;28;20033;-72
2022/09/01 04:47:28;;;;;;;5.60;2.35;;;;;;;16.62;89.64;100457.75;5050987;28;20647;-72
2022/09/01 04:49:56;;;;;;;3.78;2.50;;;;;;;16.61;89.49;100450.50;5053860;28;20111;-72
2022/09/01 04:52:22;;;;;;;2.90;2.50;;;;;;;16.54;89.58;100456.59;5053543;28;20057;-72
2022/09/01 04:54:48;;;;;;;6.00;2.40;;;;;;;16.52;90.02;100458.94;5042555;28;20032;-72
2022/09/01 04:57:14;;;;;;;6.63;2.72;;;;;;;16.54;89.82;100454.63;5051697;28;20049;-72
2022/09/01 04:59:40;;;;;;;2.95;2.20;;;;;;;16.51;89.52;100455.28;5055273;28;20047;-72
2022/09/01 05:02:08;;;;;;;4.85;2.75;;;;;;;16.53;89.48;100449.38;5054987;28;20497;-69
2022/09/01 05:04:34;;;;;;;4.45;2.67;;;;;;;16.49;90.03;100446.41;5046171;28;20029;-69
2022/09/01 05:06:59;;;;;;;4.57;3.13;;;;;;;16.50;89.87;100452.84;5056167;28;20021;-69
2022/09/01 05:09:30;;;;;;;3.65;2.53;;;;;;;16.48;89.84;100443.94;5023125;28;20033;-69
2022/09/01 05:11:56;;;;;;;5.20;2.78;;;;;;;16.50;90.09;100444.44;5025893;28;20448;-69
2022/09/01 05:14:23;;;;;;;5.60;3.00;;;;;;;16.48;90.33;100443.94;5029514;28;20052;-69
2022/09/01 05:16:49;;;;;;;5.28;2.85;;;;;;;16.47;90.31;100443.13;5003117;28;20030;-69
2022/09/01 05:19:16;;;;;;;3.35;2.58;;;;;;;16.43;90.46;100436.53;5020449;28;20497;-69
2022/09/01 05:21:45;;;;;;;4.65;2.72;;;;;;;16.45;90.57;100441.81;5034005;28;20044;-69
2022/09/01 05:24:16;;;;;;;4.20;2.85;;;;;;;16.44;90.85;100442.97;5014647;28;20143;-69
2022/09/01 05:26:42;;;;;;;4.45;3.08;;;;;;;16.44;90.89;100440.19;5033263;28;20029;-69
2022/09/01 05:29:12;;;;;;;3.28;2.35;;;;;;;16.44;90.86;100438.19;5003415;28;20501;-69
2022/09/01 05:31:39;;;;;;;4.88;2.92;;;;;;;16.44;91.40;100438.19;5023501;28;20037;-69
2022/09/01 05:34:06;;;;;;;4.20;2.97;;;;;;;16.42;91.17;100434.91;5014211;28;20029;-69
2022/09/01 05:36:32;;;;;;;5.90;2.97;;;;;;;16.43;90.50;100436.53;5023165;28;20497;-69
2022/09/01 05:38:59;;;;;;;4.97;2.45;;;;;;;16.43;90.83;100439.31;5051538;28;20170;-69
2022/09/01 05:41:25;;;;;;;4.78;3.10;;;;;;;16.44;91.65;100435.38;5036060;28;20032;-69
2022/09/01 05:43:51;;;;;;;5.68;2.92;;;;;;;16.45;91.46;100428.63;5032786;28;20033;-69
2022/09/01 05:46:25;;;;;;;6.68;3.17;;;;;;;16.46;92.37;100432.22;5036922;28;20167;-69
2022/09/01 05:48:51;;;;;;;3.72;3.05;;;;;;;16.47;92.35;100433.91;5035312;28;20078;-69
2022/09/01 05:51:18;;;;;;;6.70;2.92;;;;;;;16.52;92.16;100433.72;5020988;28;20041;-69
2022/09/01 05:53:51;;;;;;;11.65;3.05;;;;;;;16.51;92.97;100430.06;5021471;28;20044;-69
2022/09/01 05:56:18;;;;;;;5.43;3.15;;;;;;;16.54;93.62;100435.00;5016386;28;20044;-69
2022/09/01 05:58:46;;;;;;;8.23;2.88;;;;;;;16.58;93.78;100440.78;5033559;28;20048;-69
2022/09/01 06:01:23;;;;;;;7.53;3.08;;;;;;;16.63;93.91;100439.75;5046967;28;20506;-69
2022/09/01 06:03:53;;;;;;;7.53;3.25;;;;;;;16.67;95.63;100438.75;5015983;28;20504;-69
2022/09/01 06:06:27;;;;;;;4.80;2.90;;;;;;;16.77;93.75;100442.34;5002497;28;20125;-69
2022/09/01 06:08:57;;;;;;;7.35;3.00;;;;;;;16.85;94.40;100447.91;5004085;28;20025;-69
2022/09/01 06:11:24;;;;;;;5.57;3.00;;;;;;;16.88;94.15;100444.47;5039075;28;20025;-69
2022/09/01 06:13:51;;;;;;;6.03;3.28;;;;;;;16.91;93.21;100448.53;5002882;28;20029;-69
2022/09/01 06:16:18;;;;;;;4.97;2.97;;;;;;;16.97;94.22;100442.41;5049601;28;20039;-69
2022/09/01 06:18:44;;;;;;;6.07;3.05;;;;;;;17.03;93.58;100450.66;5035101;28;20085;-69
2022/09/01 06:21:13;;;;;;;3.55;2.80;;;;;;;17.06;92.76;100447.97;5027787;28;20037;-69
2022/09/01 06:23:45;;;;;;;4.38;2.50;;;;;;;17.12;93.16;100449.41;5043432;28;20036;-69
2022/09/01 06:26:20;;;;;;;5.18;3.47;;;;;;;17.15;94.17;100445.94;5013434;28;20132;-70
2022/09/01 06:28:45;;;;;;;4.05;2.30;;;;;;;17.19;91.40;100444.09;5053750;28;20039;-70
2022/09/01 06:31:11;;;;;;;6.35;2.75;;;;;;;17.20;92.30;100445.75;5036063;28;20040;-70
2022/09/01 06:33:37;;;;;;;5.43;2.45;;;;;;;17.30;92.34;100446.50;5017016;28;20041;-73
2022/09/01 06:36:04;;;;;;;5.53;2.65;;;;;;;17.31;92.47;100460.19;5045571;28;20103;-73
2022/09/01 06:38:29;;;;;;;3.22;2.53;;;;;;;17.35;92.76;100451.91;5052263;28;20460;-73
2022/09/01 06:40:59;;;;;;;3.92;3.20;;;;;;;17.38;92.31;100448.41;5035235;28;20032;-73
2022/09/01 06:43:29;;;;;;;4.20;2.40;;;;;;;17.42;92.71;100449.38;5018692;28;20029;-73
2022/09/01 06:45:54;;;;;;;7.93;3.13;;;;;;;17.44;92.85;100449.88;5034692;28;20034;-73
2022/09/01 06:48:21;;;;;;;4.38;3.35;;;;;;;17.47;93.54;100443.56;5038246;28;20032;-73
2022/09/01 06:50:46;;;;;;;5.18;3.22;;;;;;;17.47;93.34;100443.56;5037927;28;20025;-73
2022/09/01 06:53:17;;;;;;;4.80;2.97;;;;;;;17.49;93.03;100444.03;5021459;28;20063;-73
2022/09/01 06:55:45;;;;;;;5.05;2.72;;;;;;;17.54;92.21;100443.84;5019651;28;20037;-73
2022/09/01 06:58:14;;;;;;;7.05;3.47;;;;;;;17.57;92.67;100453.56;5033588;28;20041;-73
2022/09/01 07:00:41;;;;;;;8.80;4.75;;;;;;;17.61;94.92;100448.91;5033870;28;20061;-73
2022/09/01 07:03:13;;;;;;;5.10;2.90;;;;;;;17.63;93.37;100452.19;5020198;28;20033;-73
2022/09/01 07:05:45;;;;;;;4.35;2.35;;;;;;;17.68;93.05;100459.59;5030064;28;20398;-73
2022/09/01 07:08:16;;;;;;;4.18;2.70;;;;;;;17.73;93.08;100456.56;5008000;28;20043;-73
2022/09/01 07:10:49;;;;;;;4.38;2.40;;;;;;;17.76;92.60;100444.66;5016721;28;20563;-72
2022/09/01 07:13:21;;;;;;;4.30;2.30;;;;;;;17.82;91.63;100457.34;5021203;28;20040;-73
2022/09/01 07:15:48;;;;;;;8.60;4.43;;;;;;;17.85;98.12;100448.22;5031611;28;20029;-73
2022/09/01 07:18:16;;;;;;;5.80;3.78;;;;;;;17.89;96.92;100454.00;5020022;28;20956;-73
2022/09/01 07:20:41;;;;;;;8.00;3.47;;;;;;;17.96;96.63;100455.06;5037031;28;20485;-73
2022/09/01 07:23:07;;;;;;;7.82;3.60;;;;;;;18.01;95.13;100454.03;5036455;28;20175;-73
2022/09/01 07:25:37;;;;;;;6.30;3.40;;;;;;;18.08;94.42;100462.72;5049043;28;20113;-73
2022/09/01 07:28:04;;;;;;;9.98;3.90;;;;;;;18.13;97.76;100456.88;5039360;28;20067;-73
2022/09/01 07:30:30;;;;;;;7.78;3.70;;;;;;;18.19;99.18;100452.69;5000988;28;20096;-73
2022/09/01 07:32:56;;;;;;;11.93;4.20;;;;;;;18.22;100.00;100463.25;5032395;28;20677;-71
2022/09/01 07:35:22;;;;;;;10.43;5.28;;;;;;;18.29;100.00;100462.66;5052129;28;20397;-73
2022/09/01 07:37:49;;;;;;;6.65;2.70;;;;;;;18.41;94.00;100451.44;5021365;28;20112;-73
2022/09/01 07:40:17;;;;;;;8.85;4.45;;;;;;;18.52;100.00;100458.25;5050981;28;20385;-73
2022/09/01 07:42:44;;;;;;;5.70;2.58;;;;;;;18.65;95.53;100458.28;5010419;28;20112;-73
2022/09/01 07:45:10;;;;;;;7.25;3.40;;;;;;;18.75;96.47;100453.06;5022249;28;20037;-73
2022/09/01 07:47:36;;;;;;;3.47;2.28;;;;;;;18.91;92.43;100461.59;5054479;28;20053;-73
2022/09/01 07:50:07;;;;;;;4.75;2.33;;;;;;;19.07;91.22;100460.91;5015398;28;20445;-74
2022/09/01 07:52:41;;;;;;;4.95;2.53;;;;;;;19.22;90.83;100456.53;5036587;28;20482;-67
2022/09/01 07:55:11;;;;;;;5.05;3.08;;;;;;;19.33;90.79;100461.31;5034178;28;20086;-67
2022/09/01 07:57:37;;;;;;;7.15;2.60;;;;;;;19.43;89.88;100449.59;5035434;28;20494;-75
2022/09/01 08:00:04;;;;;;;4.85;2.70;;;;;;;19.53;90.17;100453.06;5035274;28;20072;-68
2022/09/01 08:02:29;;;;;;;8.85;4.45;;;;;;;19.61;90.99;100452.09;5040281;28;20031;-68
2022/09/01 08:04:55;;;;;;;8.00;3.60;;;;;;;19.68;90.09;100454.38;5047226;28;20044;-68
2022/09/01 08:07:21;;;;;;;9.82;3.20;;;;;;;19.73;89.54;100457.75;5029424;28;20065;-69
2022/09/01 08:09:46;;;;;;;8.52;3.35;;;;;;;19.78;89.43;100463.16;5019441;28;20067;-69
2022/09/01 08:12:12;;;;;;;6.82;3.92;;;;;;;19.85;89.82;100451.25;5004626;28;20432;-69
2022/09/01 08:14:37;;;;;;;6.47;3.97;;;;;;;19.89;89.88;100456.97;5022861;28;20033;-69
2022/09/01 08:17:03;;;;;;;8.75;3.78;;;;;;;19.92;89.64;100456.25;5006226;28;20037;-70
2022/09/01 08:19:29;;;;;;;12.05;5.45;;;;;;;19.89;91.22;100459.78;5052596;28;20025;-70
2022/09/01 08:21:55;;;;;;;8.85;4.03;;;;;;;19.93;90.02;100466.38;5031469;28;20040;-70
2022/09/01 08:24:21;;;;;;;7.30;4.03;;;;;;;19.96;89.82;100474.91;5027340;28;20041;-70
2022/09/01 08:26:46;;;;;;;10.85;4.60;;;;;;;19.95;89.86;100464.03;5053962;28;20031;-74
2022/09/01 08:29:12;;;;;;;7.03;3.85;;;;;;;19.97;89.21;100461.66;5033201;28;20037;-74
2022/09/01 08:31:37;;;;;;;9.07;3.75;;;;;;;19.98;88.33;100463.31;5039128;28;20481;-74
2022/09/01 08:34:06;;;;;;;9.45;3.83;;;;;;;19.97;88.15;100461.66;5056086;28;20044;-73
2022/09/01 08:36:31;;;;;;;9.07;3.83;;;;;;;19.99;88.02;100464.94;5036392;28;20729;-73
2022/09/01 08:38:57;;;;;;;8.57;4.13;;;;;;;19.98;88.81;100468.94;5020578;28;20032;-73
2022/09/01 08:41:27;;;;;;;10.18;4.78;;;;;;;19.96;89.68;100469.28;5001606;28;20051;-72
2022/09/01 08:44:24;;;;;;;9.77;3.75;;;;;;;19.95;88.86;100464.03;5037269;28;20048;-72
2022/09/01 08:46:55;;;;;;;7.65;3.58;;;;;;;19.92;88.41;100464.72;5024667;28;20033;-73
2022/09/01 08:49:22;;;;;;;8.60;3.67;;;;;;;19.89;88.66;100459.78;5037090;28;20171;-73
2022/09/01 08:52:02;;;;;;;6.68;3.60;;;;;;;19.86;88.93;100462.19;5031274;28;20048;-74
2022/09/01 08:54:33;;;;;;;7.72;4.25;;;;;;;19.82;89.40;100472.50;5033387;28;20045;-74
2022/09/01 08:57:30;;;;;;;10.85;4.78;;;;;;;19.78;89.56;100465.97;5055452;28;20053;-73
2022/09/01 08:59:56;;;;;;;7.55;3.63;;;;;;;19.77;89.42;100471.94;5035189;28;20066;-77
2022/09/01 09:02:52;;;;;;;8.75;3.97;;;;;;;19.74;90.00;100465.03;5037444;28;20025;-76
2022/09/01 09:05:47;;;;;;;8.13;4.20;;;;;;;19.75;90.49;100472.31;5052277;28;20033;-75
2022/09/01 09:08:44;;;;;;;10.80;4.68;;;;;;;19.72;90.48;100470.19;5037489;28;20029;-75
2022/09/01 09:11:45;;;;;;;9.63;4.60;;;;;;;19.74;91.22;100467.03;5055049;28;20051;-75
2022/09/01 09:14:20;;;;;;;9.15;4.57;;;;;;;19.75;91.93;100463.00;5067356;28;20041;-75
2022/09/01 09:16:47;;;;;;;9.60;4.95;;;;;;;19.74;92.17;100455.75;5036783;28;20041;-76
2022/09/01 09:19:25;;;;;;;9.38;6.10;;;;;;;19.75;92.85;100463.00;5013899;28;20037;-75
2022/09/01 09:21:51;;;;;;;12.00;5.30;;;;;;;19.77;92.97;100463.47;5051268;28;20064;-75
2022/09/01 09:25:02;;;;;;;7.55;4.55;;;;;;;19.79;92.59;100466.78;5056802;28;20056;-76
2022/09/01 09:27:33;;;;;;;12.07;4.68;;;;;;;19.84;92.25;100470.16;5048106;28;20497;-76
2022/09/01 09:30:00;;;;;;;11.38;5.90;;;;;;;19.90;94.15;100461.44;5036807;28;20037;-77
2022/09/01 09:33:05;;;;;;;11.48;6.00;;;;;;;19.97;94.28;100467.28;5038642;28;20033;-77
2022/09/01 09:35:32;;;;;;;10.98;5.43;;;;;;;20.02;93.61;100465.03;5038064;28;20111;-75
2022/09/01 09:38:17;;;;;;;7.78;4.80;;;;;;;20.10;92.96;100477.34;5015360;28;20048;-75
2022/09/01 09:41:01;;;;;;;8.68;5.22;;;;;;;20.19;93.79;100480.81;5031508;28;20095;-75
2022/09/01 09:43:54;;;;;;;10.23;5.70;;;;;;;20.22;93.20;100474.44;5037878;28;20067;-75
2022/09/01 09:46:20;;;;;;;11.95;6.05;;;;;;;20.28;93.13;100480.63;5014749;28;20044;-75
2022/09/01 09:48:45;;;;;;;7.85;5.10;;;;;;;20.34;92.38;100470.75;5035358;28;20033;-75
2022/09/01 09:51:23;;;;;;;10.13;5.95;;;;;;;20.37;92.32;100472.03;5016180;28;20516;-76
2022/09/01 09:53:49;;;;;;;12.27;5.53;;;;;;;20.43;90.95;100467.75;5020905;28;20033;-76
2022/09/01 09:56:16;;;;;;;12.68;5.80;;;;;;;20.49;90.97;100461.47;5034361;28;20095;-75
2022/09/01 09:58:43;;;;;;;10.00;4.93;;;;;;;20.56;89.73;100475.00;5013762;28;20128;-76
2022/09/01 10:01:27;;;;;;;12.63;6.30;;;;;;;20.64;89.89;100464.69;5033790;28;20064;-75
2022/09/01 10:03:59;;;;;;;6.75;4.68;;;;;;;20.73;89.48;100466.19;5022350;28;20051;-75
2022/09/01 10:06:30;;;;;;;14.00;7.20;;;;;;;20.82;91.07;100456.72;5031603;28;20402;-75
2022/09/01 10:08:57;;;;;;;8.80;5.63;;;;;;;20.90;90.52;100455.69;5046448;28;20048;-75
2022/09/01 10:11:40;;;;;;;9.50;6.43;;;;;;;20.98;91.63;100454.69;5042795;28;20401;-76
2022/09/01 10:14:11;;;;;;;9.23;6.57;;;;;;;21.06;91.19;100450.84;5030347;28;20437;-76
2022/09/01 10:16:37;;;;;;;11.95;6.75;;;;;;;21.14;90.79;100444.16;5003566;28;20021;-76
2022/09/01 10:19:02;;;;;;;9.10;5.53;;;;;;;21.25;90.61;100440.78;5020025;28;20033;-75
2022/09/01 10:21:36;;;;;;;10.32;5.68;;;;;;;21.39;90.00;100441.13;5026225;28;20044;-77
2022/09/01 10:24:19;;;;;;;14.07;5.95;;;;;;;21.51;89.72;100438.19;5021536;28;20047;-75
2022/09/01 10:26:45;;;;;;;12.02;5.80;;;;;;;21.69;88.77;100437.75;5047658;28;20040;-77
2022/09/01 10:29:24;;;;;;;9.05;5.88;;;;;;;21.81;89.38;100438.44;5022088;28;20030;-77
2022/09/01 10:31:50;;;;;;;13.95;5.57;;;;;;;21.98;88.45;100431.50;5027093;28;20037;-77
2022/09/01 10:34:16;;;;;;;10.68;5.53;;;;;;;22.12;84.97;100442.28;5054352;28;20036;-77
2022/09/01 10:36:43;;;;;;;11.90;6.18;;;;;;;22.26;83.78;100438.94;5017430;28;20075;-76
2022/09/01 10:39:12;;;;;;;9.02;4.90;;;;;;;22.37;83.16;100437.13;5037158;28;20029;-76
2022/09/01 10:41:41;;;;;;;9.07;4.50;;;;;;;22.47;80.84;100432.84;5035672;28;20490;-76
2022/09/01 10:44:10;;;;;;;10.32;6.22;;;;;;;22.52;81.96;100433.34;5056108;28;20083;-76
2022/09/01 10:46:36;;;;;;;7.40;5.40;;;;;;;22.62;81.69;100433.91;5012785;28;20038;-76
2022/09/01 10:49:01;;;;;;;10.45;5.80;;;;;;;22.69;81.57;100434.03;5052052;28;20040;-76
2022/09/01 10:51:27;;;;;;;9.90;6.35;;;;;;;22.76;82.61;100422.81;5018169;28;20374;-76
2022/09/01 10:53:59;;;;;;;12.05;6.50;;;;;;;22.80;81.26;100417.25;5043192;28;20370;-76
2022/09/01 10:56:43;;;;;;;10.75;7.15;;;;;;;22.88;81.47;100421.81;5035219;28;20127;-76
2022/09/01 10:59:21;;;;;;;13.65;5.88;;;;;;;23.03;81.26;100423.69;5035219;28;20598;-76
2022/09/01 11:01:47;;;;;;;10.32;7.10;;;;;;;23.15;80.71;100419.81;5053200;28;20477;-76
2022/09/01 11:04:23;;;;;;;15.52;6.43;;;;;;;23.32;79.94;100424.94;5055754;28;20045;-77
2022/09/01 11:07:01;;;;;;;10.85;5.05;;;;;;;23.51;79.44;100423.16;5037031;28;20108;-77
2022/09/01 11:09:37;;;;;;;13.02;5.78;;;;;;;23.70;78.60;100422.19;5031931;28;20021;-77
2022/09/01 11:13:00;;;;;;;9.00;4.80;;;;;;;23.92;78.06;100429.78;5021079;28;20033;-78
2022/09/01 11:15:34;;;;;;;9.80;4.95;;;;;;;24.11;75.71;100428.81;5061988;28;20041;-78
2022/09/01 11:18:00;;;;;;;8.45;4.22;;;;;;;24.25;74.22;100423.28;5056571;28;20037;-77
2022/09/01 11:20:27;;;;;;;8.63;5.25;;;;;;;24.40;75.29;100420.59;5055157;28;20044;-77
2022/09/01 11:22:56;;;;;;;15.15;5.05;;;;;;;24.55;76.38;100418.75;5014253;28;20029;-77
2022/09/01 11:25:42;;;;;;;8.45;4.65;;;;;;;24.67;75.51;100416.41;5067035;28;20048;-78
2022/09/01 11:28:14;;;;;;;10.75;4.10;;;;;;;24.83;74.77;100421.81;5037764;28;20033;-76
2022/09/01 11:30:51;;;;;;;6.22;4.30;;;;;;;24.92;75.15;100412.94;5057858;28;20087;-75
2022/09/01 11:33:32;;;;;;;9.52;4.40;;;;;;;25.02;73.52;100420.75;5018948;28;20032;-76
2022/09/01 11:36:04;;;;;;;7.20;4.40;;;;;;;25.09;73.47;100423.63;5032266;28;20104;-76
2022/09/01 11:38:36;;;;;;;7.97;4.55;;;;;;;25.16;72.83;100426.56;5035931;28;20037;-76
2022/09/01 11:41:01;;;;;;;7.93;4.83;;;;;;;25.21;72.52;100422.50;5001327;28;20033;-77
2022/09/01 11:43:27;;;;;;;11.85;4.93;;;;;;;25.19;72.29;100416.44;5034553;28;20305;-76